Time;durP1;ratioP1;P1;durP2;ratioP2;P2;SDS_P1;SDS_P2;PMS_P1;PMS_P2;Temp;Humidity;BMP_temperature;BMP_pressure;BME280_temperature;BME280_humidity;BME280_pressure;Samples;Min_cycle;Max_cycle;Signal;HPM_P1;HPM_P2
2022/09/27 00:01:56;;;;;;;4.88;4.38;;;;;;;19.19;62.97;97917.94;5054455;28;20041;-73
2022/09/27 00:04:21;;;;;;;7.45;4.45;;;;;;;19.20;63.33;97916.09;5072100;28;20032;-73
2022/09/27 00:06:47;;;;;;;4.93;4.00;;;;;;;19.20;63.56;97908.16;5037621;28;20085;-73
2022/09/27 00:09:12;;;;;;;7.18;4.45;;;;;;;19.18;63.53;97905.72;5053643;28;20094;-73
2022/09/27 00:11:39;;;;;;;5.90;4.30;;;;;;;19.15;63.59;97892.91;5070960;28;20121;-73
2022/09/27 00:14:05;;;;;;;4.65;4.15;;;;;;;19.10;63.86;97887.34;5037626;28;20119;-73
2022/09/27 00:16:35;;;;;;;9.02;4.63;;;;;;;19.12;63.81;97899.38;5053899;28;20064;-73
2022/09/27 00:19:03;;;;;;;5.53;4.43;;;;;;;19.11;63.98;97889.78;5054369;28;20115;-73
2022/09/27 00:21:29;;;;;;;4.53;3.97;;;;;;;19.13;63.76;97884.31;5037410;28;20576;-73
2022/09/27 00:23:55;;;;;;;7.15;4.15;;;;;;;19.11;63.55;97881.88;5054266;28;20115;-73
2022/09/27 00:26:21;;;;;;;4.55;3.95;;;;;;;19.13;63.68;97881.66;5070747;28;20040;-73
2022/09/27 00:28:46;;;;;;;7.25;4.40;;;;;;;19.16;63.71;97894.50;5037170;28;20045;-74
2022/09/27 00:31:20;;;;;;;7.45;4.30;;;;;;;19.14;63.98;97892.06;5054517;28;20036;-74
2022/09/27 00:33:47;;;;;;;9.65;4.25;;;;;;;19.08;64.16;97884.09;5037805;28;20047;-74
2022/09/27 00:36:13;;;;;;;6.00;4.45;;;;;;;19.07;64.09;97890.38;5037334;28;20439;-74
2022/09/27 00:38:42;;;;;;;5.28;4.13;;;;;;;19.04;64.42;97896.88;5037059;28;20037;-74
2022/09/27 00:41:18;;;;;;;7.60;4.38;;;;;;;19.07;64.39;97893.84;5056694;28;20400;-74
2022/09/27 00:43:52;;;;;;;7.15;4.32;;;;;;;19.09;64.18;97894.47;5057778;28;20094;-74
2022/09/27 00:46:20;;;;;;;7.07;4.50;;;;;;;19.11;63.88;97896.94;5041179;28;20025;-73
2022/09/27 00:48:46;;;;;;;;;;;;;;;19.10;64.07;97895.28;5058015;28;20130;-73
2022/09/27 00:51:11;;;;;;;5.50;4.20;;;;;;;19.05;64.20;97887.13;5075435;28;20007;-73
2022/09/27 00:53:41;;;;;;;5.13;4.60;;;;;;;19.02;64.41;97874.28;5057313;28;20132;-74
2022/09/27 00:56:09;;;;;;;7.35;4.15;;;;;;;19.01;64.43;97878.75;5041358;28;20036;-73
2022/09/27 00:58:37;;;;;;;5.18;4.45;;;;;;;19.01;64.40;97881.41;5022403;28;20488;-74
2022/09/27 01:01:05;;;;;;;7.55;4.65;;;;;;;19.01;64.49;97877.91;5037480;28;20078;-75
2022/09/27 01:03:36;;;;;;;5.13;4.43;;;;;;;19.01;64.63;97869.97;5037346;28;20041;-74
2022/09/27 01:06:02;;;;;;;4.75;4.25;;;;;;;18.98;64.67;97873.84;5037568;28;20416;-74
2022/09/27 01:08:27;;;;;;;5.03;4.47;;;;;;;19.01;64.86;97878.75;5054003;28;20029;-74
2022/09/27 01:11:19;;;;;;;5.10;4.35;;;;;;;19.00;64.73;97878.94;5037454;28;20078;-74
2022/09/27 01:14:00;;;;;;;7.80;4.53;;;;;;;18.97;64.84;97893.34;5037007;28;20044;-74
2022/09/27 01:16:52;;;;;;;5.45;4.60;;;;;;;19.00;64.89;97895.63;5053677;28;20044;-74
2022/09/27 01:19:26;;;;;;;6.07;4.35;;;;;;;18.96;64.88;97884.63;5052393;28;20040;-73
2022/09/27 01:22:15;;;;;;;5.90;4.65;;;;;;;18.99;65.16;97888.69;5035804;28;20032;-73
2022/09/27 01:25:08;;;;;;;5.90;4.63;;;;;;;19.03;64.93;97889.13;4993249;28;20064;-73
2022/09/27 01:27:54;;;;;;;4.63;3.95;;;;;;;19.02;65.20;97875.06;4993643;28;20598;-74
2022/09/27 01:30:25;;;;;;;5.65;4.30;;;;;;;19.00;65.40;97865.72;4977038;28;20034;-73
2022/09/27 01:33:06;;;;;;;5.70;4.60;;;;;;;18.98;65.29;97847.41;4993238;28;20053;-73
2022/09/27 01:35:34;;;;;;;4.53;4.10;;;;;;;18.97;65.68;97851.03;4976772;28;20041;-73
2022/09/27 01:38:44;;;;;;;6.78;4.57;;;;;;;18.93;65.67;97860.38;4993493;28;20046;-73
2022/09/27 01:41:33;;;;;;;7.93;4.25;;;;;;;18.91;65.74;97868.50;4993041;28;20068;-74
2022/09/27 01:44:10;;;;;;;6.53;4.53;;;;;;;18.90;65.67;97861.59;4992999;28;20053;-74
2022/09/27 01:46:43;;;;;;;4.57;4.15;;;;;;;18.84;65.94;97838.53;4992935;28;20453;-73
2022/09/27 01:49:15;;;;;;;4.65;4.22;;;;;;;18.90;65.77;97844.91;4992829;28;20058;-73
2022/09/27 01:52:00;;;;;;;6.15;4.40;;;;;;;18.75;65.73;97821.16;4991998;28;20155;-74
2022/09/27 01:54:45;;;;;;;5.32;4.40;;;;;;;18.86;65.92;97844.44;4976684;28;20075;-74
2022/09/27 01:57:10;;;;;;;6.07;4.60;;;;;;;18.86;65.76;97841.81;4964193;28;20490;-73
2022/09/27 01:59:40;;;;;;;7.10;4.30;;;;;;;18.81;65.58;97833.59;4960691;28;20121;-73
2022/09/27 02:02:07;;;;;;;4.90;4.43;;;;;;;18.86;65.89;97836.50;5010714;28;20484;-74
2022/09/27 02:04:33;;;;;;;5.70;4.00;;;;;;;18.83;65.93;97831.59;5036004;28;20033;-76
2022/09/27 02:07:07;;;;;;;5.78;4.50;;;;;;;18.85;65.99;97837.53;5047819;28;20087;-74
2022/09/27 02:09:51;;;;;;;6.82;4.10;;;;;;;18.84;65.80;97835.91;5040446;28;20031;-74
2022/09/27 02:12:20;;;;;;;4.88;4.05;;;;;;;18.79;66.00;97828.50;5019039;28;20069;-74
2022/09/27 02:14:47;;;;;;;6.10;4.93;;;;;;;18.79;66.08;97822.41;5018525;28;20037;-74
2022/09/27 02:17:41;;;;;;;5.53;4.20;;;;;;;18.82;66.17;97814.09;5035263;28;20061;-74
2022/09/27 02:20:15;;;;;;;5.30;4.07;;;;;;;18.85;65.67;97802.34;5053101;28;20035;-74
2022/09/27 02:22:54;;;;;;;4.95;4.43;;;;;;;18.83;65.88;97815.72;5051701;28;20510;-74
2022/09/27 02:25:25;;;;;;;6.28;4.53;;;;;;;18.86;66.01;97817.19;5036710;28;20492;-74
2022/09/27 02:28:32;;;;;;;6.53;4.18;;;;;;;18.85;65.70;97804.97;5052859;28;20559;-74
2022/09/27 02:30:57;;;;;;;4.53;4.10;;;;;;;18.82;66.09;97811.47;5051080;28;20044;-74
2022/09/27 02:33:27;;;;;;;5.03;4.20;;;;;;;18.81;65.96;97809.81;5034901;28;20110;-74
2022/09/27 02:35:53;;;;;;;6.38;4.50;;;;;;;18.78;65.82;97807.56;5019006;28;20037;-74
2022/09/27 02:38:18;;;;;;;4.90;4.40;;;;;;;18.78;66.00;97808.34;5034798;28;20492;-74
2022/09/27 02:40:45;;;;;;;4.60;4.15;;;;;;;18.81;65.98;97812.47;5034526;28;20021;-73
2022/09/27 02:43:11;;;;;;;4.63;4.00;;;;;;;18.77;66.07;97805.91;5034819;28;20080;-73
2022/09/27 02:46:23;;;;;;;4.65;4.22;;;;;;;18.82;66.16;97819.38;5034512;28;20060;-73
2022/09/27 02:48:51;;;;;;;5.43;4.53;;;;;;;18.79;66.20;97820.56;5010231;28;20091;-74
2022/09/27 02:51:43;;;;;;;5.18;4.32;;;;;;;18.80;65.95;97826.69;5011147;28;20099;-74
2022/09/27 02:54:52;;;;;;;5.50;4.13;;;;;;;18.77;66.25;97816.47;5025877;28;20119;-73
2022/09/27 02:57:47;;;;;;;5.78;4.13;;;;;;;18.76;65.95;97804.28;5015780;28;20037;-74
2022/09/27 03:00:16;;;;;;;4.70;4.30;;;;;;;18.77;66.00;97809.38;5014919;28;20072;-73
2022/09/27 03:02:53;;;;;;;5.80;4.53;;;;;;;18.77;66.01;97814.69;5013095;28;20032;-74
2022/09/27 03:05:21;;;;;;;4.43;4.03;;;;;;;18.75;66.18;97805.28;5013543;28;20077;-75
2022/09/27 03:07:48;;;;;;;4.88;4.30;;;;;;;18.73;66.18;97807.31;4980673;28;20049;-73
2022/09/27 03:10:24;;;;;;;4.40;3.83;;;;;;;18.72;66.24;97808.31;4997184;28;20029;-73
2022/09/27 03:12:49;;;;;;;5.63;4.25;;;;;;;18.68;66.30;97801.81;4996218;28;20045;-75
2022/09/27 03:15:15;;;;;;;4.82;4.32;;;;;;;18.70;66.53;97803.22;5029161;28;20207;-73
2022/09/27 03:17:40;;;;;;;4.80;4.28;;;;;;;18.70;66.25;97805.88;4996095;28;20041;-73
2022/09/27 03:20:07;;;;;;;7.22;4.25;;;;;;;18.72;66.22;97795.09;5013089;28;20099;-73
2022/09/27 03:22:33;;;;;;;4.88;4.38;;;;;;;18.70;66.17;97799.78;5012863;28;20033;-74
2022/09/27 03:24:59;;;;;;;6.53;4.30;;;;;;;18.73;66.37;97805.47;4996639;28;20101;-75
2022/09/27 03:27:24;;;;;;;7.50;4.00;;;;;;;18.71;66.22;97796.94;5049748;28;20040;-76
2022/09/27 03:29:50;;;;;;;5.57;4.10;;;;;;;18.67;66.13;97789.59;5050128;28;20071;-77
2022/09/27 03:32:16;;;;;;;4.45;4.05;;;;;;;18.70;65.92;97786.56;5033104;28;20044;-80
2022/09/27 03:34:41;;;;;;;5.55;4.35;;;;;;;18.68;66.00;97784.09;5034197;28;20041;-77
2022/09/27 03:37:07;;;;;;;4.78;4.28;;;;;;;18.65;66.28;97773.09;5052121;28;20032;-77
2022/09/27 03:39:33;;;;;;;7.97;4.22;;;;;;;18.69;66.21;97771.69;5016509;28;20562;-75
2022/09/27 03:41:58;;;;;;;6.40;4.15;;;;;;;18.67;66.18;97768.44;5050109;28;20024;-75
2022/09/27 03:44:24;;;;;;;5.72;4.55;;;;;;;18.67;66.42;97779.81;5032821;28;20110;-75
2022/09/27 03:46:49;;;;;;;4.50;4.03;;;;;;;18.61;66.38;97764.72;5034036;28;20033;-76
2022/09/27 03:49:15;;;;;;;4.97;4.03;;;;;;;18.65;66.04;97767.81;5033289;28;20036;-76
2022/09/27 03:51:41;;;;;;;5.97;4.35;;;;;;;18.65;66.22;97762.53;5017018;28;20049;-75
2022/09/27 03:54:07;;;;;;;4.90;4.15;;;;;;;18.64;66.21;97759.06;5020108;28;20029;-75
2022/09/27 03:56:32;;;;;;;5.40;4.35;;;;;;;18.59;65.89;97753.53;5050337;28;20032;-76
2022/09/27 03:58:58;;;;;;;6.70;4.40;;;;;;;18.58;65.79;97760.66;5067094;28;20029;-75
2022/09/27 04:01:25;;;;;;;5.50;4.45;;;;;;;18.56;65.93;97760.00;5033379;28;20037;-77
2022/09/27 04:03:51;;;;;;;4.72;4.13;;;;;;;18.59;65.95;97769.41;5033993;28;20040;-77
2022/09/27 04:06:17;;;;;;;4.90;4.22;;;;;;;18.57;65.95;97761.66;5057787;28;20446;-76
2022/09/27 04:08:44;;;;;;;6.07;4.10;;;;;;;18.61;65.71;97767.38;5053491;28;20438;-75
2022/09/27 04:11:09;;;;;;;4.82;4.20;;;;;;;18.61;65.61;97762.91;5053443;28;20041;-75
2022/09/27 04:13:35;;;;;;;6.68;4.45;;;;;;;18.62;65.64;97763.72;5036643;28;20082;-74
2022/09/27 04:16:02;;;;;;;5.97;3.97;;;;;;;18.62;65.79;97767.16;5056318;28;20059;-75
2022/09/27 04:18:28;;;;;;;4.43;4.00;;;;;;;18.60;65.48;97763.91;5057660;28;20090;-75
2022/09/27 04:20:53;;;;;;;4.35;3.95;;;;;;;18.71;65.28;97765.22;5040907;28;20063;-75
2022/09/27 04:23:19;;;;;;;4.90;4.10;;;;;;;18.68;65.42;97760.31;5057538;28;20455;-74
2022/09/27 04:25:45;;;;;;;4.50;4.10;;;;;;;18.61;65.67;97741.78;5057460;28;20407;-75
2022/09/27 04:28:11;;;;;;;5.05;4.10;;;;;;;18.66;65.78;97746.47;5057079;28;20458;-76
2022/09/27 04:30:37;;;;;;;4.97;4.20;;;;;;;18.62;65.64;97737.28;5062628;28;20048;-75
2022/09/27 04:33:03;;;;;;;5.38;4.20;;;;;;;18.68;65.50;97741.00;5040338;28;20535;-76
2022/09/27 04:38:13;;;;;;;8.27;4.25;;;;;;;18.70;65.69;97738.97;5039736;28;20044;-76
2022/09/27 04:40:38;;;;;;;5.82;4.53;;;;;;;18.67;65.65;97726.16;5036709;28;20060;-75
2022/09/27 04:43:04;;;;;;;6.05;4.15;;;;;;;18.74;65.52;97742.88;5036524;28;20060;-77
2022/09/27 04:45:29;;;;;;;5.22;4.43;;;;;;;18.73;65.61;97742.03;5036962;28;20120;-75
2022/09/27 04:47:55;;;;;;;4.60;3.97;;;;;;;18.76;65.50;97746.94;5036999;28;20028;-78
2022/09/27 04:50:21;;;;;;;5.28;4.45;;;;;;;18.77;65.70;97723.94;5036480;28;20028;-78
2022/09/27 04:52:55;;;;;;;4.95;4.45;;;;;;;18.78;65.38;97731.69;5036483;28;20114;-77
2022/09/27 04:55:21;;;;;;;5.18;4.28;;;;;;;18.79;65.54;97740.47;5036764;28;20032;-76
2022/09/27 04:57:47;;;;;;;7.55;4.70;;;;;;;18.80;65.41;97748.19;5052785;28;20040;-77
2022/09/27 05:00:13;;;;;;;6.63;4.97;;;;;;;18.81;65.59;97755.09;5036845;28;20021;-76
2022/09/27 05:02:39;;;;;;;5.20;4.70;;;;;;;18.80;65.54;97758.78;5036333;28;20095;-77
2022/09/27 05:05:05;;;;;;;5.88;5.20;;;;;;;18.87;65.45;97758.84;5036687;28;20430;-76
2022/09/27 05:07:32;;;;;;;4.93;4.43;;;;;;;18.90;65.34;97739.13;5070208;28;20047;-77
2022/09/27 05:09:58;;;;;;;5.50;4.50;;;;;;;19.00;64.84;97750.16;5037770;28;20037;-77
2022/09/27 05:12:25;;;;;;;6.13;4.82;;;;;;;19.09;64.78;97734.97;5036396;28;20057;-78
2022/09/27 05:14:51;;;;;;;9.13;5.83;;;;;;;19.15;64.49;97732.34;5033292;28;20206;-77
2022/09/27 05:17:18;;;;;;;9.40;6.47;;;;;;;19.34;64.23;97730.78;5048347;28;20127;-76
2022/09/27 05:19:43;;;;;;;6.75;5.32;;;;;;;19.44;64.21;97734.91;5051374;28;20029;-77
2022/09/27 05:22:09;;;;;;;11.60;8.18;;;;;;;19.47;63.75;97727.38;5034601;28;20036;-77
2022/09/27 05:24:34;;;;;;;12.82;8.68;;;;;;;19.60;63.38;97752.25;5017786;28;20188;-76
2022/09/27 05:27:00;;;;;;;10.88;9.10;;;;;;;19.59;63.18;97746.13;5017850;28;20025;-76
2022/09/27 05:29:26;;;;;;;12.50;10.15;;;;;;;19.62;63.79;97750.22;5035100;28;20032;-77
2022/09/27 05:31:52;;;;;;;12.32;9.85;;;;;;;19.60;63.86;97741.66;5035429;28;20025;-77
2022/09/27 05:34:19;;;;;;;6.05;2.80;;;;;;;19.62;55.12;97726.41;5049936;28;20197;-85
2022/09/27 05:36:48;;;;;;;9.02;3.45;;;;;;;19.94;54.04;97721.38;5040473;28;20027;-84
2022/09/27 05:39:15;;;;;;;10.40;4.95;;;;;;;20.24;54.79;97724.47;5031110;28;20500;-82
2022/09/27 05:41:44;;;;;;;7.15;4.55;;;;;;;20.46;54.47;97732.22;5054432;28;20028;-87
2022/09/27 05:44:09;;;;;;;9.60;4.82;;;;;;;20.65;54.29;97727.94;5049998;28;20037;-80
2022/09/27 05:46:37;;;;;;;6.55;5.20;;;;;;;20.76;56.54;97717.53;5035799;28;20149;-75
2022/09/27 05:49:03;;;;;;;7.63;4.80;;;;;;;20.77;56.50;97719.16;5067008;28;20621;-76
2022/09/27 05:51:30;;;;;;;9.10;5.18;;;;;;;20.96;56.16;97727.28;5034819;28;20067;-75
2022/09/27 05:53:57;;;;;;;12.80;5.10;;;;;;;21.13;55.11;97722.31;5058107;28;20116;-75
2022/09/27 05:56:23;;;;;;;10.70;5.18;;;;;;;21.45;54.51;97723.19;5018922;28;20127;-76
2022/09/27 05:58:49;;;;;;;9.20;5.10;;;;;;;21.92;53.19;97727.44;5053347;28;20492;-75
2022/09/27 06:01:15;;;;;;;8.43;4.45;;;;;;;22.77;51.36;97717.16;5026506;28;20032;-77
2022/09/27 06:03:41;;;;;;;6.10;3.90;;;;;;;23.66;50.58;97715.94;5032720;28;20029;-80
2022/09/27 06:06:09;;;;;;;10.00;4.20;;;;;;;23.71;49.86;97716.06;5062723;28;20075;-78
2022/09/27 06:08:35;;;;;;;7.50;3.85;;;;;;;23.97;48.75;97704.22;5051807;28;20029;-80
2022/09/27 06:11:03;;;;;;;6.60;4.13;;;;;;;24.43;48.01;97695.69;5063813;28;20029;-80
2022/09/27 06:13:28;;;;;;;5.82;3.50;;;;;;;25.51;46.08;97705.97;5045632;28;20020;-77
2022/09/27 06:15:54;;;;;;;4.85;3.50;;;;;;;26.11;44.21;97718.81;5042920;28;20147;-79
2022/09/27 06:18:20;;;;;;;6.43;3.40;;;;;;;25.81;44.02;97714.56;5044098;28;20161;-81
2022/09/27 06:20:45;;;;;;;6.15;3.30;;;;;;;25.58;44.48;97725.34;5030181;28;20028;-78
2022/09/27 06:23:12;;;;;;;4.55;3.17;;;;;;;25.34;44.57;97716.63;5042632;28;20025;-79
2022/09/27 06:25:37;;;;;;;6.13;3.22;;;;;;;25.32;44.30;97726.72;5059904;28;20025;-75
2022/09/27 06:28:03;;;;;;;18.27;3.63;;;;;;;25.35;44.11;97735.09;5048019;28;20025;-75
2022/09/27 06:30:29;;;;;;;11.15;3.30;;;;;;;25.41;43.72;97742.16;5034870;28;20397;-77
2022/09/27 06:32:59;;;;;;;16.65;3.75;;;;;;;25.46;43.67;97734.22;5018444;28;20036;-77
2022/09/27 06:35:25;;;;;;;10.57;3.28;;;;;;;25.40;43.75;97737.03;5034792;28;20048;-78
2022/09/27 06:37:51;;;;;;;9.07;3.00;;;;;;;25.33;43.57;97739.81;5034571;28;20124;-76
2022/09/27 06:40:17;;;;;;;9.18;3.20;;;;;;;25.21;43.28;97728.34;5050841;28;20119;-77
2022/09/27 06:42:42;;;;;;;14.85;3.63;;;;;;;25.13;43.45;97731.38;5034349;28;20044;-77
2022/09/27 06:45:09;;;;;;;10.88;4.00;;;;;;;25.11;43.28;97715.59;5034768;28;20041;-77
2022/09/27 06:47:35;;;;;;;18.00;3.75;;;;;;;25.25;43.01;97706.28;5034936;28;20040;-76
2022/09/27 06:50:04;;;;;;;13.55;3.78;;;;;;;25.36;42.93;97712.66;5018232;28;20095;-76
2022/09/27 06:52:29;;;;;;;13.85;3.90;;;;;;;25.31;42.93;97711.75;5034816;28;20434;-77
2022/09/27 06:54:55;;;;;;;12.40;3.30;;;;;;;25.31;42.78;97712.56;5050999;28;20039;-77
2022/09/27 07:00:23;;;;;;;10.82;3.55;;;;;;;25.64;42.30;97711.03;5036606;28;20123;-78
2022/09/27 07:02:51;;;;;;;10.10;3.10;;;;;;;25.89;41.57;97724.03;5037333;28;20025;-77
2022/09/27 07:05:17;;;;;;;7.03;3.15;;;;;;;26.20;40.92;97723.78;5033600;28;20036;-77
2022/09/27 07:07:42;;;;;;;7.35;2.85;;;;;;;26.04;41.34;97698.66;5034093;28;20407;-73
2022/09/27 07:10:09;;;;;;;7.22;2.90;;;;;;;26.12;40.90;97700.91;5034125;28;20108;-78
2022/09/27 07:12:38;;;;;;;7.18;2.65;;;;;;;26.11;41.04;97708.13;5045609;28;20024;-77
2022/09/27 07:15:04;;;;;;;13.40;3.17;;;;;;;26.00;41.40;97717.03;5053938;28;20064;-74
2022/09/27 07:17:29;;;;;;;6.57;2.80;;;;;;;25.90;41.30;97706.97;5054969;28;20033;-76
2022/09/27 07:19:55;;;;;;;6.40;2.70;;;;;;;25.79;41.54;97702.47;5071043;28;20059;-79
2022/09/27 07:22:22;;;;;;;5.85;3.10;;;;;;;25.69;41.38;97708.44;5036236;28;20116;-84
2022/09/27 07:24:48;;;;;;;9.20;3.10;;;;;;;25.71;41.51;97718.91;5055557;28;20035;-80
2022/09/27 07:27:14;;;;;;;13.38;2.92;;;;;;;25.80;41.61;97718.25;5028636;28;20033;-72
2022/09/27 07:29:40;;;;;;;7.90;3.00;;;;;;;25.88;41.45;97717.06;5054600;28;20036;-78
2022/09/27 07:32:05;;;;;;;7.28;3.00;;;;;;;25.86;41.32;97721.06;5036692;28;20040;-76
2022/09/27 07:34:34;;;;;;;9.50;3.30;;;;;;;25.76;41.86;97719.81;5053483;28;20037;-74
2022/09/27 07:37:02;;;;;;;9.55;3.75;;;;;;;25.66;43.03;97722.28;5053447;28;20033;-75
2022/09/27 07:39:28;;;;;;;24.88;5.25;;;;;;;25.53;43.77;97726.06;5053929;28;20032;-76
2022/09/27 07:41:53;;;;;;;10.65;4.13;;;;;;;25.38;44.19;97718.59;5036759;28;20133;-75
2022/09/27 07:44:19;;;;;;;19.98;5.55;;;;;;;25.32;45.19;97711.50;5053226;28;20116;-75
2022/09/27 07:46:44;;;;;;;15.82;4.97;;;;;;;25.21;45.36;97707.81;5037030;28;20039;-76
2022/09/27 07:49:10;;;;;;;27.70;6.07;;;;;;;25.19;46.42;97709.91;5052417;28;20041;-77
2022/09/27 07:51:35;;;;;;;28.17;6.85;;;;;;;25.37;45.98;97705.47;5037748;28;20036;-73
2022/09/27 07:54:01;;;;;;;31.83;6.72;;;;;;;26.02;44.34;97698.88;5053486;28;20035;-76
2022/09/27 07:56:27;;;;;;;23.17;5.55;;;;;;;26.30;44.09;97706.03;5036900;28;20029;-74
2022/09/27 07:58:52;;;;;;;17.02;4.68;;;;;;;27.21;41.83;97699.50;5036995;28;20025;-75
2022/09/27 08:01:18;;;;;;;23.08;4.75;;;;;;;27.73;40.28;97692.03;5053519;28;20021;-74
2022/09/27 08:03:43;;;;;;;20.13;4.63;;;;;;;28.58;38.21;97694.09;5069801;28;20050;-72
2022/09/27 08:06:09;;;;;;;12.27;3.95;;;;;;;28.93;36.56;97676.53;5069921;28;20036;-76
2022/09/27 08:08:35;;;;;;;21.98;4.22;;;;;;;29.00;35.94;97693.22;5068273;28;20126;-73
2022/09/27 08:11:01;;;;;;;14.48;3.65;;;;;;;29.04;35.92;97683.56;5070180;28;20036;-73
2022/09/27 08:13:26;;;;;;;11.90;3.30;;;;;;;29.28;35.38;97680.47;5053219;28;20081;-75
2022/09/27 08:15:52;;;;;;;9.93;3.30;;;;;;;29.15;35.30;97692.47;5035653;28;20060;-72
2022/09/27 08:18:17;;;;;;;25.38;4.70;;;;;;;29.09;35.17;97688.94;5067483;28;20420;-72
2022/09/27 08:20:43;;;;;;;22.33;4.90;;;;;;;29.01;35.08;97687.56;5064797;28;20040;-74
2022/09/27 08:23:08;;;;;;;20.90;4.68;;;;;;;29.02;35.16;97683.03;5052716;28;20023;-76
2022/09/27 08:25:35;;;;;;;23.75;5.00;;;;;;;29.17;34.76;97672.31;5040847;28;20130;-75
2022/09/27 08:28:02;;;;;;;18.40;4.10;;;;;;;29.29;34.88;97684.75;5031834;28;20067;-76
2022/09/27 08:30:30;;;;;;;14.00;4.15;;;;;;;29.54;34.33;97689.38;5043298;28;20059;-75
2022/09/27 08:32:59;;;;;;;12.57;3.53;;;;;;;30.27;33.22;97683.78;5043385;28;20063;-77
2022/09/27 08:35:27;;;;;;;10.05;3.53;;;;;;;30.77;32.63;97688.56;5042112;28;20028;-72
2022/09/27 08:37:56;;;;;;;14.23;3.95;;;;;;;31.03;31.87;97683.94;5039957;28;20024;-75
2022/09/27 08:40:23;;;;;;;12.50;3.38;;;;;;;31.12;31.79;97684.16;5024826;28;20115;-74
2022/09/27 08:43:11;;;;;;;5.88;3.33;;;;;;;31.71;30.86;97677.09;5030937;28;20032;-73
2022/09/27 08:46:00;;;;;;;14.48;3.33;;;;;;;31.95;30.30;97676.38;5056177;28;20021;-78
2022/09/27 08:48:25;;;;;;;8.88;2.67;;;;;;;32.28;29.81;97664.75;5060713;28;20036;-74
2022/09/27 08:50:52;;;;;;;8.63;2.75;;;;;;;32.61;29.17;97656.06;5049470;28;20411;-74
2022/09/27 08:53:37;;;;;;;10.57;2.88;;;;;;;32.90;28.86;97653.31;5035029;28;20040;-74
2022/09/27 08:56:03;;;;;;;9.32;2.83;;;;;;;33.15;28.35;97664.91;5042649;28;20523;-77
2022/09/27 08:58:32;;;;;;;6.80;2.58;;;;;;;33.33;27.80;97658.72;5047031;28;20139;-75
2022/09/27 09:00:59;;;;;;;9.88;2.83;;;;;;;33.53;27.32;97648.72;5067169;28;20029;-76
2022/09/27 09:03:27;;;;;;;5.50;2.20;;;;;;;33.70;27.41;97657.13;5070776;28;20514;-74
2022/09/27 09:06:14;;;;;;;;;;;;;;;33.80;27.37;97649.94;5070263;28;20144;-76
2022/09/27 09:09:17;;;;;;;5.30;2.60;;;;;;;33.99;27.26;97655.31;5046606;28;19920;-74
2022/09/27 09:15:12;;;;;;;5.80;2.15;;;;;;;33.17;27.74;97633.78;5055613;28;20078;-73
2022/09/27 09:17:47;;;;;;;9.15;2.58;;;;;;;32.90;28.24;97634.41;5042339;28;20078;-74
2022/09/27 09:20:25;;;;;;;5.53;2.40;;;;;;;32.56;28.57;97629.09;5059415;28;20179;-73
2022/09/27 09:22:53;;;;;;;5.35;2.30;;;;;;;32.33;29.17;97622.63;5046449;28;20028;-78
2022/09/27 09:25:42;;;;;;;5.03;2.22;;;;;;;32.13;29.33;97629.00;5048504;28;20037;-77
2022/09/27 09:28:17;;;;;;;4.55;2.13;;;;;;;31.95;29.58;97622.41;5050833;28;20404;-76
2022/09/27 09:31:01;;;;;;;5.75;2.33;;;;;;;32.01;29.89;97605.09;5064269;28;20056;-79
2022/09/27 09:33:43;;;;;;;5.18;2.45;;;;;;;31.92;29.78;97602.19;5045974;28;20507;-76
2022/09/27 09:36:25;;;;;;;9.18;2.30;;;;;;;31.78;30.15;97617.44;5053473;28;20029;-75
2022/09/27 09:38:58;;;;;;;5.72;2.47;;;;;;;31.70;30.29;97618.84;5049859;28;20060;-73
2022/09/27 09:41:30;;;;;;;7.65;2.60;;;;;;;31.80;30.17;97628.72;5034605;28;20071;-74
2022/09/27 09:44:04;;;;;;;5.20;2.25;;;;;;;31.71;30.48;97613.16;5059491;28;20080;-72
2022/09/27 09:46:37;;;;;;;4.85;2.20;;;;;;;31.62;30.32;97604.06;5028317;28;20032;-72
2022/09/27 09:49:09;;;;;;;4.90;2.35;;;;;;;31.44;30.51;97604.69;5029406;28;20381;-73
2022/09/27 09:51:41;;;;;;;6.13;2.38;;;;;;;31.44;30.41;97604.69;5030107;28;20040;-73
2022/09/27 09:54:14;;;;;;;3.90;2.15;;;;;;;31.61;30.40;97588.16;5029241;28;20033;-76
2022/09/27 09:56:46;;;;;;;5.22;2.50;;;;;;;31.68;30.06;97573.25;5030010;28;20035;-73
2022/09/27 09:59:17;;;;;;;5.40;2.33;;;;;;;31.76;30.18;97576.44;5029501;28;20021;-71
2022/09/27 10:01:43;;;;;;;4.32;2.40;;;;;;;31.89;30.16;97571.16;5044619;28;20025;-72
2022/09/27 10:04:27;;;;;;;4.63;2.22;;;;;;;31.93;29.85;97574.13;5035752;28;20035;-76
2022/09/27 10:06:53;;;;;;;4.50;2.08;;;;;;;31.87;29.95;97567.97;5035982;28;20063;-75
2022/09/27 10:09:24;;;;;;;7.28;2.30;;;;;;;32.14;29.51;97558.56;5019880;28;20068;-71
2022/09/27 10:11:49;;;;;;;5.22;2.13;;;;;;;32.08;29.83;97548.88;5040511;28;20036;-70
2022/09/27 10:14:17;;;;;;;7.05;2.28;;;;;;;32.13;29.62;97534.53;5070574;28;20040;-70
2022/09/27 10:16:47;;;;;;;6.03;2.60;;;;;;;32.24;29.82;97546.84;5037189;28;20044;-70
2022/09/27 10:19:17;;;;;;;4.22;1.98;;;;;;;32.16;29.31;97542.06;5038420;28;20447;-70
2022/09/27 10:21:44;;;;;;;5.53;2.20;;;;;;;32.01;29.96;97541.13;5038643;28;20024;-71
2022/09/27 10:24:13;;;;;;;4.88;2.10;;;;;;;32.09;29.82;97537.03;5054863;28;20424;-71
2022/09/27 10:26:42;;;;;;;3.75;2.03;;;;;;;32.32;29.39;97540.00;5054947;28;20534;-69
2022/09/27 10:29:33;;;;;;;6.57;2.70;;;;;;;32.22;29.71;97520.13;5038654;28;20609;-69
2022/09/27 10:32:00;;;;;;;3.72;1.92;;;;;;;32.23;29.74;97523.63;5040835;28;20029;-70
2022/09/27 10:34:33;;;;;;;6.38;2.30;;;;;;;32.31;29.38;97514.91;5054548;28;20028;-70
2022/09/27 10:37:03;;;;;;;3.70;1.95;;;;;;;32.14;29.67;97504.56;5054725;28;20056;-71
2022/09/27 10:39:29;;;;;;;5.43;2.38;;;;;;;31.99;30.02;97493.91;5054601;28;20502;-70
2022/09/27 10:41:54;;;;;;;5.60;2.50;;;;;;;31.99;29.73;97494.72;5054913;28;20043;-69
2022/09/27 10:44:31;;;;;;;7.60;2.38;;;;;;;31.96;30.05;97489.91;5054127;28;20452;-70
2022/09/27 10:47:07;;;;;;;4.60;2.13;;;;;;;31.90;30.40;97499.94;5054983;28;20039;-69
2022/09/27 10:49:37;;;;;;;5.32;2.60;;;;;;;31.85;30.37;97494.59;5037765;28;20112;-70
2022/09/27 10:52:22;;;;;;;5.80;2.33;;;;;;;31.89;30.20;97502.91;5071368;28;20483;-69
2022/09/27 10:55:15;;;;;;;5.18;2.17;;;;;;;31.80;30.14;97504.63;5055028;28;20488;-70
2022/09/27 10:57:40;;;;;;;5.18;2.20;;;;;;;31.70;30.44;97514.44;5053975;28;20024;-70
2022/09/27 11:00:19;;;;;;;6.00;2.35;;;;;;;31.56;30.47;97510.78;5054561;28;20028;-70
2022/09/27 11:02:44;;;;;;;4.07;2.10;;;;;;;31.42;30.88;97501.72;5055775;28;20032;-69
2022/09/27 11:05:28;;;;;;;5.03;2.33;;;;;;;31.30;31.00;97497.50;5054470;28;20025;-69
2022/09/27 11:08:26;;;;;;;5.32;2.53;;;;;;;31.20;30.80;97492.19;5039385;28;20024;-70
2022/09/27 11:11:05;;;;;;;5.15;2.28;;;;;;;31.15;30.88;97493.06;5055392;28;20040;-69
2022/09/27 11:13:33;;;;;;;4.28;2.00;;;;;;;31.15;31.10;97481.47;5071147;28;20028;-70
2022/09/27 11:16:28;;;;;;;4.70;2.17;;;;;;;31.33;31.35;97479.97;5054370;28;20113;-76
2022/09/27 11:19:21;;;;;;;6.20;2.40;;;;;;;31.31;31.07;97477.56;5036346;28;20470;-72
2022/09/27 11:21:56;;;;;;;8.60;1.90;;;;;;;31.22;30.70;97479.25;5050560;28;20044;-71
2022/09/27 11:24:47;;;;;;;6.72;2.30;;;;;;;31.18;31.08;97476.28;5050261;28;20028;-69
2022/09/27 11:27:33;;;;;;;5.43;2.20;;;;;;;31.10;31.01;97476.91;5050792;28;20033;-71
2022/09/27 11:30:11;;;;;;;5.80;2.40;;;;;;;31.05;31.55;97465.38;5050707;28;20029;-74
2022/09/27 11:32:36;;;;;;;;;;;;;;;31.00;31.10;97461.63;5050732;28;20029;-73
2022/09/27 11:35:18;;;;;;;5.78;2.30;;;;;;;30.95;31.29;97455.47;5050264;28;20441;-70
2022/09/27 11:38:09;;;;;;;4.57;2.30;;;;;;;30.92;30.61;97447.94;5051563;28;20029;-69
2022/09/27 11:40:46;;;;;;;6.53;2.10;;;;;;;30.84;29.62;97444.75;5050015;28;20060;-70
2022/09/27 11:43:41;;;;;;;;;;;;;;;30.88;29.99;97463.84;5034603;28;20094;-69
2022/09/27 11:46:39;;;;;;;5.80;2.20;;;;;;;30.86;30.66;97455.25;5049218;28;20039;-70
2022/09/27 11:49:31;;;;;;;9.35;2.30;;;;;;;30.83;30.24;97445.81;5050627;28;20029;-72
2022/09/27 11:52:02;;;;;;;4.53;2.10;;;;;;;30.77;30.08;97446.94;5052628;28;20036;-71
2022/09/27 11:55:00;;;;;;;3.15;1.80;;;;;;;30.69;30.78;97450.22;5049897;28;20534;-69
2022/09/27 11:57:35;;;;;;;3.30;1.80;;;;;;;30.58;30.32;97435.22;5049180;28;20083;-69
2022/09/27 12:00:08;;;;;;;4.75;1.80;;;;;;;30.53;29.84;97440.66;5032666;28;20120;-68